sensor_id;sensor_type;location;lat;lon;timestamp;temperature;humidity
22716;DHT22;11525;51.152;4.456;2022-09-09T00:07:07;15.40;99.90
22716;DHT22;11525;51.152;4.456;2022-09-09T00:09:43;15.30;99.90
22716;DHT22;11525;51.152;4.456;2022-09-09T00:12:14;15.20;99.90
22716;DHT22;11525;51.152;4.456;2022-09-09T00:14:52;15.20;99.90
22716;DHT22;11525;51.152;4.456;2022-09-09T00:20:12;15.20;99.90
22716;DHT22;11525;51.152;4.456;2022-09-09T00:22:34;15.20;99.90
22716;DHT22;11525;51.152;4.456;2022-09-09T00:25:14;15.20;99.90
22716;DHT22;11525;51.152;4.456;2022-09-09T00:27:47;15.20;99.90
22716;DHT22;11525;51.152;4.456;2022-09-09T00:32:40;15.20;99.90
22716;DHT22;11525;51.152;4.456;2022-09-09T00:38:00;15.30;99.90
22716;DHT22;11525;51.152;4.456;2022-09-09T00:40:34;15.30;99.90
22716;DHT22;11525;51.152;4.456;2022-09-09T00:48:46;15.30;99.90
22716;DHT22;11525;51.152;4.456;2022-09-09T00:57:14;15.20;99.90
22716;DHT22;11525;51.152;4.456;2022-09-09T00:59:51;15.30;99.90
22716;DHT22;11525;51.152;4.456;2022-09-09T01:05:23;15.20;99.90
22716;DHT22;11525;51.152;4.456;2022-09-09T01:07:52;15.00;99.90
22716;DHT22;11525;51.152;4.456;2022-09-09T01:10:50;15.00;99.90
22716;DHT22;11525;51.152;4.456;2022-09-09T01:13:25;14.90;99.90
22716;DHT22;11525;51.152;4.456;2022-09-09T01:15:51;15.00;99.90
22716;DHT22;11525;51.152;4.456;2022-09-09T01:18:23;14.90;99.90
22716;DHT22;11525;51.152;4.456;2022-09-09T01:26:39;15.20;99.90
22716;DHT22;11525;51.152;4.456;2022-09-09T01:29:12;15.10;99.90
22716;DHT22;11525;51.152;4.456;2022-09-09T01:31:43;15.20;99.90
22716;DHT22;11525;51.152;4.456;2022-09-09T01:34:17;15.20;99.90
22716;DHT22;11525;51.152;4.456;2022-09-09T01:39:18;15.20;99.90
22716;DHT22;11525;51.152;4.456;2022-09-09T01:41:44;15.20;99.90
22716;DHT22;11525;51.152;4.456;2022-09-09T01:44:10;15.10;99.90
22716;DHT22;11525;51.152;4.456;2022-09-09T01:46:36;15.20;99.90
22716;DHT22;11525;51.152;4.456;2022-09-09T01:49:03;15.00;99.90
22716;DHT22;11525;51.152;4.456;2022-09-09T01:51:30;15.00;99.90
22716;DHT22;11525;51.152;4.456;2022-09-09T01:53:56;15.10;99.90
22716;DHT22;11525;51.152;4.456;2022-09-09T02:02:04;15.00;99.90
22716;DHT22;11525;51.152;4.456;2022-09-09T02:04:49;15.10;99.90
22716;DHT22;11525;51.152;4.456;2022-09-09T02:12:40;15.10;99.90
22716;DHT22;11525;51.152;4.456;2022-09-09T02:15:18;15.10;99.90
22716;DHT22;11525;51.152;4.456;2022-09-09T02:17:46;15.00;99.90
22716;DHT22;11525;51.152;4.456;2022-09-09T02:20:15;14.90;99.90
22716;DHT22;11525;51.152;4.456;2022-09-09T02:22:43;14.80;99.90
22716;DHT22;11525;51.152;4.456;2022-09-09T02:25:11;14.80;99.90
22716;DHT22;11525;51.152;4.456;2022-09-09T02:27:40;14.80;99.90
22716;DHT22;11525;51.152;4.456;2022-09-09T02:30:07;14.80;99.90
22716;DHT22;11525;51.152;4.456;2022-09-09T02:32:34;14.80;99.90
22716;DHT22;11525;51.152;4.456;2022-09-09T02:35:08;14.90;99.90
22716;DHT22;11525;51.152;4.456;2022-09-09T02:37:38;14.90;99.90
22716;DHT22;11525;51.152;4.456;2022-09-09T02:40:05;14.70;99.90
22716;DHT22;11525;51.152;4.456;2022-09-09T02:42:32;14.80;99.90
22716;DHT22;11525;51.152;4.456;2022-09-09T02:45:04;14.80;99.90
22716;DHT22;11525;51.152;4.456;2022-09-09T02:47:38;14.90;99.90
22716;DHT22;11525;51.152;4.456;2022-09-09T02:50:17;15.00;99.90
22716;DHT22;11525;51.152;4.456;2022-09-09T02:58:04;14.90;99.90
22716;DHT22;11525;51.152;4.456;2022-09-09T03:00:31;14.90;99.90
22716;DHT22;11525;51.152;4.456;2022-09-09T03:02:58;14.90;99.90
22716;DHT22;11525;51.152;4.456;2022-09-09T03:05:24;14.80;99.90
22716;DHT22;11525;51.152;4.456;2022-09-09T03:07:49;14.80;99.90
22716;DHT22;11525;51.152;4.456;2022-09-09T03:10:16;14.80;99.90
22716;DHT22;11525;51.152;4.456;2022-09-09T03:12:42;14.90;99.90
22716;DHT22;11525;51.152;4.456;2022-09-09T03:15:08;14.90;99.90
22716;DHT22;11525;51.152;4.456;2022-09-09T03:17:35;14.90;99.90
22716;DHT22;11525;51.152;4.456;2022-09-09T03:20:05;14.90;99.90
22716;DHT22;11525;51.152;4.456;2022-09-09T03:22:31;15.00;99.90
22716;DHT22;11525;51.152;4.456;2022-09-09T03:24:57;15.00;99.90
22716;DHT22;11525;51.152;4.456;2022-09-09T03:27:22;14.90;99.90
22716;DHT22;11525;51.152;4.456;2022-09-09T03:29:48;15.00;99.90
22716;DHT22;11525;51.152;4.456;2022-09-09T03:32:16;15.20;99.90
22716;DHT22;11525;51.152;4.456;2022-09-09T03:34:43;15.20;99.90
22716;DHT22;11525;51.152;4.456;2022-09-09T03:37:10;15.20;99.90
22716;DHT22;11525;51.152;4.456;2022-09-09T03:39:35;15.30;99.90
22716;DHT22;11525;51.152;4.456;2022-09-09T03:42:01;15.20;99.90
22716;DHT22;11525;51.152;4.456;2022-09-09T03:44:30;15.30;99.90
22716;DHT22;11525;51.152;4.456;2022-09-09T03:46:56;15.30;99.90
22716;DHT22;11525;51.152;4.456;2022-09-09T03:49:21;15.40;99.90
22716;DHT22;11525;51.152;4.456;2022-09-09T03:51:48;15.40;99.90
22716;DHT22;11525;51.152;4.456;2022-09-09T03:54:14;15.40;99.90
22716;DHT22;11525;51.152;4.456;2022-09-09T03:56:39;15.40;99.90
22716;DHT22;11525;51.152;4.456;2022-09-09T03:59:07;15.40;99.90
22716;DHT22;11525;51.152;4.456;2022-09-09T04:01:34;15.40;99.90
22716;DHT22;11525;51.152;4.456;2022-09-09T04:04:00;15.50;99.90
22716;DHT22;11525;51.152;4.456;2022-09-09T04:06:27;15.60;99.90
22716;DHT22;11525;51.152;4.456;2022-09-09T04:08:53;15.60;99.90
22716;DHT22;11525;51.152;4.456;2022-09-09T04:11:20;15.60;99.90
22716;DHT22;11525;51.152;4.456;2022-09-09T04:13:46;15.70;99.90
22716;DHT22;11525;51.152;4.456;2022-09-09T04:16:12;15.60;99.90
22716;DHT22;11525;51.152;4.456;2022-09-09T04:18:41;15.60;99.90
22716;DHT22;11525;51.152;4.456;2022-09-09T04:21:09;15.70;99.90
22716;DHT22;11525;51.152;4.456;2022-09-09T04:23:35;15.60;99.90
22716;DHT22;11525;51.152;4.456;2022-09-09T04:26:02;15.70;99.90
22716;DHT22;11525;51.152;4.456;2022-09-09T04:28:30;15.90;99.90
22716;DHT22;11525;51.152;4.456;2022-09-09T04:31:03;15.90;99.90
22716;DHT22;11525;51.152;4.456;2022-09-09T04:33:29;15.90;99.90
22716;DHT22;11525;51.152;4.456;2022-09-09T04:35:56;15.90;99.90
22716;DHT22;11525;51.152;4.456;2022-09-09T04:38:22;15.90;99.90
22716;DHT22;11525;51.152;4.456;2022-09-09T04:40:49;15.90;99.90
22716;DHT22;11525;51.152;4.456;2022-09-09T04:43:17;15.80;99.90
22716;DHT22;11525;51.152;4.456;2022-09-09T04:45:47;15.80;99.90
22716;DHT22;11525;51.152;4.456;2022-09-09T04:48:13;15.80;99.90
22716;DHT22;11525;51.152;4.456;2022-09-09T04:50:39;15.70;99.90
22716;DHT22;11525;51.152;4.456;2022-09-09T04:53:06;15.80;99.90
22716;DHT22;11525;51.152;4.456;2022-09-09T04:55:32;15.70;99.90
22716;DHT22;11525;51.152;4.456;2022-09-09T04:58:04;15.70;99.90
22716;DHT22;11525;51.152;4.456;2022-09-09T05:00:30;15.80;99.90
22716;DHT22;11525;51.152;4.456;2022-09-09T05:02:56;15.80;99.90
22716;DHT22;11525;51.152;4.456;2022-09-09T05:05:22;15.90;99.90
22716;DHT22;11525;51.152;4.456;2022-09-09T05:07:47;15.90;99.90
22716;DHT22;11525;51.152;4.456;2022-09-09T05:10:13;15.90;99.90
22716;DHT22;11525;51.152;4.456;2022-09-09T05:12:40;15.90;99.90
22716;DHT22;11525;51.152;4.456;2022-09-09T05:15:06;15.80;99.90
22716;DHT22;11525;51.152;4.456;2022-09-09T05:17:32;15.80;99.90
22716;DHT22;11525;51.152;4.456;2022-09-09T05:19:59;15.80;99.90
22716;DHT22;11525;51.152;4.456;2022-09-09T05:22:25;15.80;99.90
22716;DHT22;11525;51.152;4.456;2022-09-09T05:24:51;15.90;99.90
22716;DHT22;11525;51.152;4.456;2022-09-09T05:27:20;15.90;99.90
22716;DHT22;11525;51.152;4.456;2022-09-09T05:29:46;16.00;99.90
22716;DHT22;11525;51.152;4.456;2022-09-09T05:32:11;16.00;99.90
22716;DHT22;11525;51.152;4.456;2022-09-09T05:34:39;16.10;99.90
22716;DHT22;11525;51.152;4.456;2022-09-09T05:37:05;16.20;99.90
22716;DHT22;11525;51.152;4.456;2022-09-09T05:39:32;16.30;99.90
22716;DHT22;11525;51.152;4.456;2022-09-09T05:41:58;16.30;99.90
22716;DHT22;11525;51.152;4.456;2022-09-09T05:44:24;16.40;99.90
22716;DHT22;11525;51.152;4.456;2022-09-09T05:46:53;16.50;99.90
22716;DHT22;11525;51.152;4.456;2022-09-09T05:49:19;16.60;99.90
22716;DHT22;11525;51.152;4.456;2022-09-09T05:51:45;16.70;99.90
22716;DHT22;11525;51.152;4.456;2022-09-09T05:54:11;16.70;99.90
22716;DHT22;11525;51.152;4.456;2022-09-09T05:56:40;16.70;99.90
22716;DHT22;11525;51.152;4.456;2022-09-09T05:59:06;16.80;99.90
22716;DHT22;11525;51.152;4.456;2022-09-09T06:01:34;16.70;99.90
22716;DHT22;11525;51.152;4.456;2022-09-09T06:04:00;16.80;99.90
22716;DHT22;11525;51.152;4.456;2022-09-09T06:06:31;16.70;99.90
22716;DHT22;11525;51.152;4.456;2022-09-09T06:09:03;16.90;99.90
22716;DHT22;11525;51.152;4.456;2022-09-09T06:11:32;16.90;99.90
22716;DHT22;11525;51.152;4.456;2022-09-09T06:13:59;17.00;99.90
22716;DHT22;11525;51.152;4.456;2022-09-09T06:16:26;17.40;99.90
22716;DHT22;11525;51.152;4.456;2022-09-09T06:18:54;17.40;99.90
22716;DHT22;11525;51.152;4.456;2022-09-09T06:21:38;17.40;99.90
22716;DHT22;11525;51.152;4.456;2022-09-09T06:24:05;17.40;99.90
22716;DHT22;11525;51.152;4.456;2022-09-09T06:26:35;17.40;99.90
22716;DHT22;11525;51.152;4.456;2022-09-09T06:29:02;17.60;99.90
22716;DHT22;11525;51.152;4.456;2022-09-09T06:31:31;17.80;99.90
22716;DHT22;11525;51.152;4.456;2022-09-09T06:33:59;17.90;99.90
22716;DHT22;11525;51.152;4.456;2022-09-09T06:36:34;18.00;99.90
22716;DHT22;11525;51.152;4.456;2022-09-09T06:39:00;18.10;99.90
22716;DHT22;11525;51.152;4.456;2022-09-09T06:41:27;18.20;99.90
22716;DHT22;11525;51.152;4.456;2022-09-09T06:43:54;18.30;99.90
22716;DHT22;11525;51.152;4.456;2022-09-09T06:46:26;18.20;99.90
22716;DHT22;11525;51.152;4.456;2022-09-09T06:48:56;17.90;99.90
22716;DHT22;11525;51.152;4.456;2022-09-09T06:51:26;17.90;99.90
22716;DHT22;11525;51.152;4.456;2022-09-09T06:53:54;18.00;99.90
22716;DHT22;11525;51.152;4.456;2022-09-09T06:56:26;17.80;99.90
22716;DHT22;11525;51.152;4.456;2022-09-09T06:58:55;17.60;99.90
22716;DHT22;11525;51.152;4.456;2022-09-09T07:01:26;17.70;99.90
22716;DHT22;11525;51.152;4.456;2022-09-09T07:03:54;17.70;99.90
22716;DHT22;11525;51.152;4.456;2022-09-09T07:06:31;17.80;99.90
22716;DHT22;11525;51.152;4.456;2022-09-09T07:08:59;17.70;99.90
22716;DHT22;11525;51.152;4.456;2022-09-09T07:11:31;17.60;99.90
22716;DHT22;11525;51.152;4.456;2022-09-09T07:13:58;17.60;99.90
22716;DHT22;11525;51.152;4.456;2022-09-09T07:16:24;17.80;99.90
22716;DHT22;11525;51.152;4.456;2022-09-09T07:18:51;17.90;99.90
22716;DHT22;11525;51.152;4.456;2022-09-09T07:21:18;17.90;99.90
22716;DHT22;11525;51.152;4.456;2022-09-09T07:23:46;17.80;99.90
22716;DHT22;11525;51.152;4.456;2022-09-09T07:26:17;17.80;99.90
22716;DHT22;11525;51.152;4.456;2022-09-09T07:28:44;17.90;99.90
22716;DHT22;11525;51.152;4.456;2022-09-09T07:31:19;18.20;99.90
22716;DHT22;11525;51.152;4.456;2022-09-09T07:33:46;18.10;99.90
22716;DHT22;11525;51.152;4.456;2022-09-09T07:36:14;18.30;99.90
22716;DHT22;11525;51.152;4.456;2022-09-09T07:38:45;18.30;99.90
22716;DHT22;11525;51.152;4.456;2022-09-09T07:41:17;18.20;99.90
22716;DHT22;11525;51.152;4.456;2022-09-09T07:43:45;18.10;99.90
22716;DHT22;11525;51.152;4.456;2022-09-09T07:46:12;17.90;99.90
22716;DHT22;11525;51.152;4.456;2022-09-09T07:48:43;18.10;99.90
22716;DHT22;11525;51.152;4.456;2022-09-09T07:51:12;18.00;99.90
22716;DHT22;11525;51.152;4.456;2022-09-09T07:53:39;18.10;99.90
22716;DHT22;11525;51.152;4.456;2022-09-09T07:56:08;18.30;99.90
22716;DHT22;11525;51.152;4.456;2022-09-09T07:58:35;18.40;99.90
22716;DHT22;11525;51.152;4.456;2022-09-09T08:01:09;18.50;99.90
22716;DHT22;11525;51.152;4.456;2022-09-09T08:03:37;18.50;99.90
22716;DHT22;11525;51.152;4.456;2022-09-09T08:06:06;18.40;99.90
22716;DHT22;11525;51.152;4.456;2022-09-09T08:08:35;18.40;99.90
22716;DHT22;11525;51.152;4.456;2022-09-09T08:11:13;18.30;99.90
22716;DHT22;11525;51.152;4.456;2022-09-09T08:13:41;18.50;99.90
22716;DHT22;11525;51.152;4.456;2022-09-09T08:16:24;18.40;99.90
22716;DHT22;11525;51.152;4.456;2022-09-09T08:18:52;18.40;99.90
22716;DHT22;11525;51.152;4.456;2022-09-09T08:21:21;18.50;99.90
22716;DHT22;11525;51.152;4.456;2022-09-09T08:23:49;18.50;99.90
22716;DHT22;11525;51.152;4.456;2022-09-09T08:26:22;18.50;99.90
22716;DHT22;11525;51.152;4.456;2022-09-09T08:28:52;18.40;99.90
22716;DHT22;11525;51.152;4.456;2022-09-09T08:31:30;18.30;99.90
22716;DHT22;11525;51.152;4.456;2022-09-09T08:33:57;18.40;99.90
22716;DHT22;11525;51.152;4.456;2022-09-09T08:36:27;18.40;99.90
22716;DHT22;11525;51.152;4.456;2022-09-09T08:38:54;18.60;99.90
22716;DHT22;11525;51.152;4.456;2022-09-09T08:44:10;18.60;99.90
22716;DHT22;11525;51.152;4.456;2022-09-09T08:47:00;18.60;99.90
22716;DHT22;11525;51.152;4.456;2022-09-09T08:52:31;18.70;99.90
22716;DHT22;11525;51.152;4.456;2022-09-09T08:55:08;18.60;99.90
22716;DHT22;11525;51.152;4.456;2022-09-09T08:57:38;18.80;99.90
22716;DHT22;11525;51.152;4.456;2022-09-09T09:00:04;18.60;99.90
22716;DHT22;11525;51.152;4.456;2022-09-09T09:05:51;18.60;99.90
22716;DHT22;11525;51.152;4.456;2022-09-09T09:10:55;18.40;99.90
22716;DHT22;11525;51.152;4.456;2022-09-09T09:13:37;18.40;99.90
22716;DHT22;11525;51.152;4.456;2022-09-09T09:16:14;18.20;99.90
22716;DHT22;11525;51.152;4.456;2022-09-09T09:18:43;18.30;99.90
22716;DHT22;11525;51.152;4.456;2022-09-09T09:21:16;18.20;99.90
22716;DHT22;11525;51.152;4.456;2022-09-09T09:23:59;18.10;99.90
22716;DHT22;11525;51.152;4.456;2022-09-09T09:26:35;18.00;99.90
22716;DHT22;11525;51.152;4.456;2022-09-09T09:29:10;18.00;99.90
22716;DHT22;11525;51.152;4.456;2022-09-09T09:31:37;18.00;99.90
22716;DHT22;11525;51.152;4.456;2022-09-09T09:34:03;17.90;99.90
22716;DHT22;11525;51.152;4.456;2022-09-09T09:36:40;17.80;99.90
22716;DHT22;11525;51.152;4.456;2022-09-09T09:39:07;17.90;99.90
22716;DHT22;11525;51.152;4.456;2022-09-09T09:41:39;17.90;99.90
22716;DHT22;11525;51.152;4.456;2022-09-09T09:44:31;17.90;99.90
22716;DHT22;11525;51.152;4.456;2022-09-09T09:47:14;17.80;99.90
22716;DHT22;11525;51.152;4.456;2022-09-09T09:49:50;17.80;99.90
22716;DHT22;11525;51.152;4.456;2022-09-09T09:52:21;18.00;99.90
22716;DHT22;11525;51.152;4.456;2022-09-09T09:54:47;18.10;99.90
22716;DHT22;11525;51.152;4.456;2022-09-09T09:57:14;18.10;99.90
22716;DHT22;11525;51.152;4.456;2022-09-09T09:59:42;18.00;99.90
22716;DHT22;11525;51.152;4.456;2022-09-09T10:02:24;18.10;99.90
22716;DHT22;11525;51.152;4.456;2022-09-09T10:05:24;18.20;99.90
22716;DHT22;11525;51.152;4.456;2022-09-09T10:08:15;18.30;99.90
22716;DHT22;11525;51.152;4.456;2022-09-09T10:11:16;18.20;99.90
22716;DHT22;11525;51.152;4.456;2022-09-09T10:19:36;18.10;99.90
22716;DHT22;11525;51.152;4.456;2022-09-09T10:24:58;18.20;99.90
22716;DHT22;11525;51.152;4.456;2022-09-09T10:30:48;18.20;99.90
22716;DHT22;11525;51.152;4.456;2022-09-09T10:38:45;18.40;99.90
22716;DHT22;11525;51.152;4.456;2022-09-09T10:41:19;18.40;99.90
22716;DHT22;11525;51.152;4.456;2022-09-09T10:46:59;18.80;99.90
22716;DHT22;11525;51.152;4.456;2022-09-09T10:52:25;19.00;99.90
22716;DHT22;11525;51.152;4.456;2022-09-09T10:55:14;19.30;99.90
22716;DHT22;11525;51.152;4.456;2022-09-09T10:57:52;19.60;99.90
22716;DHT22;11525;51.152;4.456;2022-09-09T11:00:36;19.60;99.90
22716;DHT22;11525;51.152;4.456;2022-09-09T11:03:04;19.80;99.90
22716;DHT22;11525;51.152;4.456;2022-09-09T11:05:47;19.90;99.90
22716;DHT22;11525;51.152;4.456;2022-09-09T11:10:51;19.90;99.90
22716;DHT22;11525;51.152;4.456;2022-09-09T11:16:19;19.80;99.90
22716;DHT22;11525;51.152;4.456;2022-09-09T11:18:47;19.60;99.90
22716;DHT22;11525;51.152;4.456;2022-09-09T11:21:21;19.50;99.90
22716;DHT22;11525;51.152;4.456;2022-09-09T11:24:02;19.70;99.90
22716;DHT22;11525;51.152;4.456;2022-09-09T11:26:48;19.70;99.90
22716;DHT22;11525;51.152;4.456;2022-09-09T11:32:29;19.80;99.90
22716;DHT22;11525;51.152;4.456;2022-09-09T11:37:59;19.90;99.90
22716;DHT22;11525;51.152;4.456;2022-09-09T11:40:28;20.10;99.90
22716;DHT22;11525;51.152;4.456;2022-09-09T11:43:13;20.20;99.90
22716;DHT22;11525;51.152;4.456;2022-09-09T11:45:41;20.30;99.90
22716;DHT22;11525;51.152;4.456;2022-09-09T11:48:33;20.30;99.90
22716;DHT22;11525;51.152;4.456;2022-09-09T11:51:02;20.50;99.90
22716;DHT22;11525;51.152;4.456;2022-09-09T11:53:30;20.80;99.90
22716;DHT22;11525;51.152;4.456;2022-09-09T11:56:05;21.10;99.90
22716;DHT22;11525;51.152;4.456;2022-09-09T11:58:37;21.50;99.90
22716;DHT22;11525;51.152;4.456;2022-09-09T12:01:33;21.60;99.90
22716;DHT22;11525;51.152;4.456;2022-09-09T12:04:28;21.70;99.90
22716;DHT22;11525;51.152;4.456;2022-09-09T12:06:58;21.40;99.90
22716;DHT22;11525;51.152;4.456;2022-09-09T12:14:37;21.60;99.90
22716;DHT22;11525;51.152;4.456;2022-09-09T12:17:31;22.00;99.90
22716;DHT22;11525;51.152;4.456;2022-09-09T12:20:18;22.30;99.90
22716;DHT22;11525;51.152;4.456;2022-09-09T12:25:26;21.80;99.90
22716;DHT22;11525;51.152;4.456;2022-09-09T12:28:15;21.60;99.90
22716;DHT22;11525;51.152;4.456;2022-09-09T12:33:19;21.60;99.90
22716;DHT22;11525;51.152;4.456;2022-09-09T12:35:51;21.50;99.90
22716;DHT22;11525;51.152;4.456;2022-09-09T12:38:31;21.40;99.90
22716;DHT22;11525;51.152;4.456;2022-09-09T12:40:58;21.30;99.90
22716;DHT22;11525;51.152;4.456;2022-09-09T12:43:26;21.40;99.90
22716;DHT22;11525;51.152;4.456;2022-09-09T12:46:07;21.20;99.90
22716;DHT22;11525;51.152;4.456;2022-09-09T12:48:37;21.30;99.90
22716;DHT22;11525;51.152;4.456;2022-09-09T12:51:16;21.20;99.90
22716;DHT22;11525;51.152;4.456;2022-09-09T12:53:44;21.30;99.90
22716;DHT22;11525;51.152;4.456;2022-09-09T12:56:19;21.10;99.90
22716;DHT22;11525;51.152;4.456;2022-09-09T12:58:48;21.20;99.90
22716;DHT22;11525;51.152;4.456;2022-09-09T13:01:35;21.10;99.90
22716;DHT22;11525;51.152;4.456;2022-09-09T13:04:00;21.50;99.90
22716;DHT22;11525;51.152;4.456;2022-09-09T13:06:31;21.80;99.90
22716;DHT22;11525;51.152;4.456;2022-09-09T13:08:59;22.00;99.90
22716;DHT22;11525;51.152;4.456;2022-09-09T13:11:41;22.10;99.90
22716;DHT22;11525;51.152;4.456;2022-09-09T13:14:19;22.30;99.90
22716;DHT22;11525;51.152;4.456;2022-09-09T13:16:56;22.30;99.90
22716;DHT22;11525;51.152;4.456;2022-09-09T13:19:22;22.30;99.90
22716;DHT22;11525;51.152;4.456;2022-09-09T13:21:51;22.30;99.90
22716;DHT22;11525;51.152;4.456;2022-09-09T13:24:32;22.30;99.90
22716;DHT22;11525;51.152;4.456;2022-09-09T13:27:04;21.90;99.90
22716;DHT22;11525;51.152;4.456;2022-09-09T13:29:31;21.60;99.90
22716;DHT22;11525;51.152;4.456;2022-09-09T13:32:05;21.70;99.90
22716;DHT22;11525;51.152;4.456;2022-09-09T13:34:33;21.50;99.90
22716;DHT22;11525;51.152;4.456;2022-09-09T13:37:20;21.50;99.90
22716;DHT22;11525;51.152;4.456;2022-09-09T13:39:52;21.60;99.90
22716;DHT22;11525;51.152;4.456;2022-09-09T13:42:27;21.90;99.90
22716;DHT22;11525;51.152;4.456;2022-09-09T13:44:55;22.20;99.90
22716;DHT22;11525;51.152;4.456;2022-09-09T13:47:31;22.50;99.90
22716;DHT22;11525;51.152;4.456;2022-09-09T13:49:57;22.40;99.90
22716;DHT22;11525;51.152;4.456;2022-09-09T13:52:24;22.50;99.90
22716;DHT22;11525;51.152;4.456;2022-09-09T13:54:52;22.60;99.90
22716;DHT22;11525;51.152;4.456;2022-09-09T13:57:24;22.80;99.90
22716;DHT22;11525;51.152;4.456;2022-09-09T13:59:51;22.80;99.90
22716;DHT22;11525;51.152;4.456;2022-09-09T14:02:17;22.60;99.90
22716;DHT22;11525;51.152;4.456;2022-09-09T14:04:43;22.50;99.90
22716;DHT22;11525;51.152;4.456;2022-09-09T14:07:12;22.30;99.90
22716;DHT22;11525;51.152;4.456;2022-09-09T14:09:39;22.20;99.90
22716;DHT22;11525;51.152;4.456;2022-09-09T14:12:08;22.20;99.90
22716;DHT22;11525;51.152;4.456;2022-09-09T14:14:34;22.00;99.90
22716;DHT22;11525;51.152;4.456;2022-09-09T14:17:00;22.00;99.90
22716;DHT22;11525;51.152;4.456;2022-09-09T14:19:25;22.00;99.90
22716;DHT22;11525;51.152;4.456;2022-09-09T14:21:51;21.70;99.90
22716;DHT22;11525;51.152;4.456;2022-09-09T14:24:17;21.60;99.90
22716;DHT22;11525;51.152;4.456;2022-09-09T14:26:43;21.60;99.90
22716;DHT22;11525;51.152;4.456;2022-09-09T14:29:08;21.50;99.90
22716;DHT22;11525;51.152;4.456;2022-09-09T14:31:34;21.50;99.90
22716;DHT22;11525;51.152;4.456;2022-09-09T14:34:00;21.30;99.90
22716;DHT22;11525;51.152;4.456;2022-09-09T14:36:26;21.30;99.90
22716;DHT22;11525;51.152;4.456;2022-09-09T14:38:51;21.30;99.90
22716;DHT22;11525;51.152;4.456;2022-09-09T14:41:19;21.10;99.90
22716;DHT22;11525;51.152;4.456;2022-09-09T14:43:48;21.30;99.90
22716;DHT22;11525;51.152;4.456;2022-09-09T14:46:15;21.50;99.90
22716;DHT22;11525;51.152;4.456;2022-09-09T14:48:41;21.90;99.90
22716;DHT22;11525;51.152;4.456;2022-09-09T14:51:09;22.00;99.90
22716;DHT22;11525;51.152;4.456;2022-09-09T14:53:35;22.20;99.90
22716;DHT22;11525;51.152;4.456;2022-09-09T14:56:09;22.40;99.90
22716;DHT22;11525;51.152;4.456;2022-09-09T14:58:36;22.50;99.90
22716;DHT22;11525;51.152;4.456;2022-09-09T15:01:09;22.40;99.90
22716;DHT22;11525;51.152;4.456;2022-09-09T15:03:39;22.10;99.90
22716;DHT22;11525;51.152;4.456;2022-09-09T15:06:13;21.70;99.90
22716;DHT22;11525;51.152;4.456;2022-09-09T15:08:42;21.70;99.90
22716;DHT22;11525;51.152;4.456;2022-09-09T15:11:08;21.60;99.90
22716;DHT22;11525;51.152;4.456;2022-09-09T15:13:34;21.50;99.90
22716;DHT22;11525;51.152;4.456;2022-09-09T15:16:06;21.30;99.90
22716;DHT22;11525;51.152;4.456;2022-09-09T15:18:33;21.40;99.90
22716;DHT22;11525;51.152;4.456;2022-09-09T15:20:59;21.20;99.90
22716;DHT22;11525;51.152;4.456;2022-09-09T15:23:28;21.10;99.90
22716;DHT22;11525;51.152;4.456;2022-09-09T15:25:56;21.10;99.90
22716;DHT22;11525;51.152;4.456;2022-09-09T15:28:22;21.00;99.90
22716;DHT22;11525;51.152;4.456;2022-09-09T15:30:52;20.70;99.90
22716;DHT22;11525;51.152;4.456;2022-09-09T15:33:20;20.70;99.90
22716;DHT22;11525;51.152;4.456;2022-09-09T15:35:47;20.70;99.90
22716;DHT22;11525;51.152;4.456;2022-09-09T15:38:13;20.80;99.90
22716;DHT22;11525;51.152;4.456;2022-09-09T15:40:42;20.90;99.90
22716;DHT22;11525;51.152;4.456;2022-09-09T15:43:07;21.00;99.90
22716;DHT22;11525;51.152;4.456;2022-09-09T15:45:36;21.00;99.90
22716;DHT22;11525;51.152;4.456;2022-09-09T15:48:03;21.20;99.90
22716;DHT22;11525;51.152;4.456;2022-09-09T15:50:34;21.10;99.90
22716;DHT22;11525;51.152;4.456;2022-09-09T15:53:02;21.20;99.90
22716;DHT22;11525;51.152;4.456;2022-09-09T15:55:30;21.20;99.90
22716;DHT22;11525;51.152;4.456;2022-09-09T15:57:59;20.80;99.90
22716;DHT22;11525;51.152;4.456;2022-09-09T16:31:36;19.60;99.90
22716;DHT22;11525;51.152;4.456;2022-09-09T16:34:30;19.70;99.90
22716;DHT22;11525;51.152;4.456;2022-09-09T17:01:48;19.40;99.90
22716;DHT22;11525;51.152;4.456;2022-09-09T17:04:20;19.10;99.90
22716;DHT22;11525;51.152;4.456;2022-09-09T17:06:48;18.90;99.90
22716;DHT22;11525;51.152;4.456;2022-09-09T17:09:15;18.80;99.90
22716;DHT22;11525;51.152;4.456;2022-09-09T17:11:40;18.70;99.90
22716;DHT22;11525;51.152;4.456;2022-09-09T17:14:09;18.60;99.90
22716;DHT22;11525;51.152;4.456;2022-09-09T17:16:36;18.70;99.90
22716;DHT22;11525;51.152;4.456;2022-09-09T17:19:04;18.80;99.90
22716;DHT22;11525;51.152;4.456;2022-09-09T17:21:31;18.80;99.90
22716;DHT22;11525;51.152;4.456;2022-09-09T17:23:57;18.70;99.90
22716;DHT22;11525;51.152;4.456;2022-09-09T17:26:26;18.70;99.90
22716;DHT22;11525;51.152;4.456;2022-09-09T17:28:53;18.70;99.90
22716;DHT22;11525;51.152;4.456;2022-09-09T17:31:21;18.80;99.90
22716;DHT22;11525;51.152;4.456;2022-09-09T17:33:48;18.70;99.90
22716;DHT22;11525;51.152;4.456;2022-09-09T17:36:19;18.70;99.90
22716;DHT22;11525;51.152;4.456;2022-09-09T17:38:45;18.70;99.90
22716;DHT22;11525;51.152;4.456;2022-09-09T17:41:18;18.70;99.90
22716;DHT22;11525;51.152;4.456;2022-09-09T17:43:44;18.70;99.90
22716;DHT22;11525;51.152;4.456;2022-09-09T17:46:16;18.80;99.90
22716;DHT22;11525;51.152;4.456;2022-09-09T17:48:43;18.70;99.90
22716;DHT22;11525;51.152;4.456;2022-09-09T17:51:13;18.80;99.90
22716;DHT22;11525;51.152;4.456;2022-09-09T17:53:42;18.90;99.90
22716;DHT22;11525;51.152;4.456;2022-09-09T17:56:10;18.80;99.90
22716;DHT22;11525;51.152;4.456;2022-09-09T17:58:36;18.80;99.90
22716;DHT22;11525;51.152;4.456;2022-09-09T18:01:12;18.90;99.90
22716;DHT22;11525;51.152;4.456;2022-09-09T18:03:43;19.00;99.90
22716;DHT22;11525;51.152;4.456;2022-09-09T18:06:12;19.00;99.90
22716;DHT22;11525;51.152;4.456;2022-09-09T18:08:42;19.00;99.90
22716;DHT22;11525;51.152;4.456;2022-09-09T18:11:11;18.90;99.90
22716;DHT22;11525;51.152;4.456;2022-09-09T18:13:37;18.80;99.90
22716;DHT22;11525;51.152;4.456;2022-09-09T18:16:07;18.60;99.90
22716;DHT22;11525;51.152;4.456;2022-09-09T18:18:33;18.40;99.90
22716;DHT22;11525;51.152;4.456;2022-09-09T18:21:01;18.20;99.90
22716;DHT22;11525;51.152;4.456;2022-09-09T18:23:33;18.00;99.90
22716;DHT22;11525;51.152;4.456;2022-09-09T18:25:58;17.80;99.90
22716;DHT22;11525;51.152;4.456;2022-09-09T18:28:26;17.70;99.90
22716;DHT22;11525;51.152;4.456;2022-09-09T18:30:52;17.60;99.90
22716;DHT22;11525;51.152;4.456;2022-09-09T18:33:18;17.50;99.90
22716;DHT22;11525;51.152;4.456;2022-09-09T18:35:43;17.50;99.90